sim
Sign-in with your pilot id or email,
or register
Callsign
Passwort

Schedule Details

Flight Number: OEO4709
Departure: Cork Airport (EICK) at 14:35
Arrival: Munich Airport (EDDM) at 17:00

Weather Information
Getting current METAR information for EICK 210500Z 32005KT 9999 FEW016 11/09 Q1019 NOSIG
Getting current METAR information for EDDM 210450Z 06002KT 9999 1500NE R08L/0900U BCFG NSC 07/07 Q1016 NOSIG

Schedule Frequency

Route Map